Weather at Jersey Airport

Public forecast

Using degrees Celsius for public forecast. Weather courtesy of forecast.io.

Current aviation weather report (METAR) for Jersey Airport

2024/05/29 21:50 (retrieved 20 minutes ago)

EGJJ 292150Z AUTO 29011KT 9999 OVC046/// 13/13 Q1012

Closest aviation forecast (TAF) to Jersey Airport

Closest forecast is Dinard-Pleurtuit-Saint-Malo Airport, 37.5 nm (69.5 km) S.

2024/05/29 18:22 Ammendment (retrieved 4 hours ago)

TAF AMD LFRD 291814Z 2918/3018 31010KT 9999 SCT012 BKN025 TEMPO 2918/3006 BKN008 PROB40 TEMPO 3000/3006 4000 -RA BECMG 3006/3008 31015G25KT PROB40 TEMPO 3006/3010 3000 SHRA BKN012 BKN020CB